San Fernando, Spain
Current Conditions -  °F | °C
As of 2:00 AM on Tuesday 23 Dec 2014 (Local Time) from LERT Reporting Station
Clear Clear  
Wind Chill: 10°   Ceiling: Unl
Heat Index: 10°   Visibility: 6mi
Dew Point:   Wind: 8mph
Humidity: 87%   Direction: 20°NNE
Pressure: 30.33"   Gusts: NA
Location:  36.48°N, 6.2°W
Report Text: LERT 230100Z 02007KT CAVOK 10/08 Q1027 NOSIG
Loading
Personal Weather Stations






























Interactive Weather Map New forecast layout! Learn more

10-Day Weather Forecast

Advertisements
Track Severe Weather on mobile